Time;durP1;ratioP1;P1;durP2;ratioP2;P2;SDS_P1;SDS_P2;PMS_P1;PMS_P2;Temp;Humidity;BMP_temperature;BMP_pressure;BME280_temperature;BME280_humidity;BME280_pressure;Samples;Min_cycle;Max_cycle;Signal;HPM_P1;HPM_P2
2022/08/29 00:00:42;;;;;;;;;;;;;;;;;;5054374;28;1365;-70
2022/08/29 00:03:08;;;;;;;;;;;;;;;;;;5061438;28;2009;-73
2022/08/29 00:05:35;;;;;;;;;;;;;;;;;;5034412;28;1428;-73
2022/08/29 00:08:02;;;;;;;;;;;;;;;;;;5052007;28;1415;-72
2022/08/29 00:10:30;;;;;;;;;;;;;;;;;;5051949;28;881;-72
2022/08/29 00:12:56;;;;;;;;;;;;;;;;;;5033712;28;1918;-72
2022/08/29 00:15:23;;;;;;;;;;;;;;;;;;5033895;28;1326;-72
2022/08/29 00:17:49;;;;;;;;;;;;;;;;;;5052003;28;1071;-72
2022/08/29 00:20:17;;;;;;;;;;;;;;;;;;5033576;28;1385;-72
2022/08/29 00:22:43;;;;;;;;;;;;;;;;;;5051491;28;850;-71
2022/08/29 00:25:10;;;;;;;;;;;;;;;;;;5051576;28;802;-71
2022/08/29 00:27:38;;;;;;;;;;;;;;;;;;5033735;28;1321;-73
2022/08/29 00:30:05;;;;;;;;;;;;;;;;;;5051495;28;1373;-71
2022/08/29 00:32:33;;;;;;;;;;;;;;;;;;5050860;28;1967;-71
2022/08/29 00:35:00;;;;;;;;;;;;;;;;;;5051772;28;790;-72
2022/08/29 00:37:26;;;;;;;;;;;;;;;;;;5033644;28;1217;-72
2022/08/29 00:39:52;;;;;;;;;;;;;;;;;;5051501;28;1299;-71
2022/08/29 00:42:18;;;;;;;;;;;;;;;;;;5050914;28;1008;-70
2022/08/29 00:44:46;;;;;;;;;;;;;;;;;;5051444;28;1147;-72
2022/08/29 00:47:12;;;;;;;;;;;;;;;;;;5051368;28;1068;-72
2022/08/29 00:49:39;;;;;;;;;;;;;;;;;;5033231;28;1455;-71
2022/08/29 00:52:07;;;;;;;;;;;;;;;;;;5033229;28;1925;-72
2022/08/29 00:54:33;;;;;;;;;;;;;;;;;;5051337;28;1126;-71
2022/08/29 00:56:59;;;;;;;;;;;;;;;;;;5051280;28;913;-73
2022/08/29 00:59:26;;;;;;;;;;;;;;;;;;5050980;28;1404;-72
2022/08/29 01:01:54;;;;;;;;;;;;;;;;;;5050967;28;965;-72
2022/08/29 01:04:21;;;;;;;;;;;;;;;;;;5033327;28;1200;-71
2022/08/29 01:06:47;;;;;;;;;;;;;;;;;;5033575;28;1192;-72
2022/08/29 01:09:13;;;;;;;;;;;;;;;;;;5050964;28;1308;-71
2022/08/29 01:14:24;;;;;;;;;;;;;;;;;;5051088;28;1048;-73
2022/08/29 01:16:51;;;;;;;;;;;;;;;;;;5051663;28;945;-73
2022/08/29 01:19:20;;;;;;;;;;;;;;;;;;5034132;28;1492;-71
2022/08/29 01:21:47;;;;;;;;;;;;;;;;;;5070400;28;1523;-72
2022/08/29 01:24:22;;;;;;;;;;;;;;;;;;5071125;28;1169;-71
2022/08/29 01:26:48;;;;;;;;;;;;;;;;;;5053007;28;858;-72
2022/08/29 01:29:15;;;;;;;;;;;;;;;;;;5070758;28;1305;-71
2022/08/29 01:31:41;;;;;;;;;;;;;;;;;;5070825;28;1913;-73
2022/08/29 01:34:08;;;;;;;;;;;;;;;;;;5053206;28;1326;-73
2022/08/29 01:36:35;;;;;;;;;;;;;;;;;;5071105;28;993;-72
2022/08/29 01:39:01;;;;;;;;;;;;;;;;;;5070792;28;1323;-72
2022/08/29 01:41:29;;;;;;;;;;;;;;;;;;5070585;28;937;-71
2022/08/29 01:43:56;;;;;;;;;;;;;;;;;;5070695;28;1087;-69
2022/08/29 01:46:23;;;;;;;;;;;;;;;;;;5070835;28;938;-72
2022/08/29 01:48:49;;;;;;;;;;;;;;;;;;5052774;28;1325;-72
2022/08/29 01:51:15;;;;;;;;;;;;;;;;;;5070368;28;1083;-71
2022/08/29 01:53:42;;;;;;;;;;;;;;;;;;5070934;28;1914;-72
2022/08/29 01:56:09;;;;;;;;;;;;;;;;;;5070765;28;1091;-71
2022/08/29 01:58:37;;;;;;;;;;;;;;;;;;5052680;28;1406;-73
2022/08/29 02:01:03;;;;;;;;;;;;;;;;;;5070642;28;1084;-73
2022/08/29 02:03:30;;;;;;;;;;;;;;;;;;5070381;28;963;-73
2022/08/29 02:05:59;;;;;;;;;;;;;;;;;;5054898;28;1086;-72
2022/08/29 02:08:25;;;;;;;;;;;;;;;;;;5073991;28;1377;-72
2022/08/29 02:10:51;;;;;;;;;;;;;;;;;;5056226;28;1393;-72
2022/08/29 02:13:18;;;;;;;;;;;;;;;;;;5055761;28;1948;-72
2022/08/29 02:15:45;;;;;;;;;;;;;;;;;;5074208;28;1083;-70
2022/08/29 02:18:11;;;;;;;;;;;;;;;;;;5073853;28;1390;-71
2022/08/29 02:20:37;;;;;;;;;;;;;;;;;;5074156;28;936;-72
2022/08/29 02:23:04;;;;;;;;;;;;;;;;;;5074024;28;890;-72
2022/08/29 02:25:42;;;;;;;;;;;;;;;;;;5055971;28;1197;-72
2022/08/29 02:28:09;;;;;;;;;;;;;;;;;;5055964;28;1339;-72
2022/08/29 02:30:35;;;;;;;;;;;;;;;;;;5073836;28;894;-73
2022/08/29 02:33:03;;;;;;;;;;;;;;;;;;5073228;28;1989;-72
2022/08/29 02:35:29;;;;;;;;;;;;;;;;;;5073789;28;1126;-72
2022/08/29 02:37:56;;;;;;;;;;;;;;;;;;5073756;28;886;-71
2022/08/29 02:40:22;;;;;;;;;;;;;;;;;;5073593;28;1410;-72
2022/08/29 02:42:48;;;;;;;;;;;;;;;;;;5073353;28;1059;-71
2022/08/29 02:45:14;;;;;;;;;;;;;;;;;;5055653;28;1342;-72
2022/08/29 02:47:41;;;;;;;;;;;;;;;;;;5055729;28;1298;-71
2022/08/29 02:50:09;;;;;;;;;;;;;;;;;;5073355;28;1365;-72
2022/08/29 02:52:35;;;;;;;;;;;;;;;;;;5073160;28;1926;-73
2022/08/29 02:55:01;;;;;;;;;;;;;;;;;;5073813;28;893;-72
2022/08/29 02:57:27;;;;;;;;;;;;;;;;;;5073145;28;1059;-72
2022/08/29 02:59:54;;;;;;;;;;;;;;;;;;5073349;28;1322;-73
2022/08/29 03:02:20;;;;;;;;;;;;;;;;;;5072763;28;1063;-72
2022/08/29 03:04:46;;;;;;;;;;;;;;;;;;5073312;28;854;-72
2022/08/29 03:07:14;;;;;;;;;;;;;;;;;;5073217;28;1130;-73
2022/08/29 03:09:40;;;;;;;;;;;;;;;;;;5073109;28;1392;-72
2022/08/29 03:12:06;;;;;;;;;;;;;;;;;;5072734;28;1075;-73
2022/08/29 03:14:32;;;;;;;;;;;;;;;;;;5054893;28;1922;-73
2022/08/29 03:16:59;;;;;;;;;;;;;;;;;;5073123;28;794;-74
2022/08/29 03:19:25;;;;;;;;;;;;;;;;;;5069657;28;1538;-73
2022/08/29 03:21:51;;;;;;;;;;;;;;;;;;5054764;28;1379;-73
2022/08/29 03:24:19;;;;;;;;;;;;;;;;;;5072877;28;1011;-73
2022/08/29 03:26:45;;;;;;;;;;;;;;;;;;5072566;28;961;-73
2022/08/29 03:29:11;;;;;;;;;;;;;;;;;;5072725;28;1313;-73
2022/08/29 03:31:37;;;;;;;;;;;;;;;;;;5072379;28;811;-72
2022/08/29 03:34:04;;;;;;;;;;;;;;;;;;5072605;28;1914;-73
2022/08/29 03:36:30;;;;;;;;;;;;;;;;;;5072430;28;1056;-72
2022/08/29 03:38:57;;;;;;;;;;;;;;;;;;5072376;28;1325;-72
2022/08/29 03:41:26;;;;;;;;;;;;;;;;;;5071999;28;1027;-71
2022/08/29 03:43:54;;;;;;;;;;;;;;;;;;5054472;28;1056;-72
2022/08/29 03:46:20;;;;;;;;;;;;;;;;;;5054494;28;1136;-71
2022/08/29 03:48:47;;;;;;;;;;;;;;;;;;5072186;28;1383;-71
2022/08/29 03:51:13;;;;;;;;;;;;;;;;;;5081566;22;3502;-75
2022/08/29 03:53:39;;;;;;;;;;;;;;;;;;5091600;28;1907;-74
2022/08/29 03:56:06;;;;;;;;;;;;;;;;;;5074388;28;941;-75
2022/08/29 03:58:33;;;;;;;;;;;;;;;;;;5092673;28;1118;-76
2022/08/29 04:01:00;;;;;;;;;;;;;;;;;;5077069;28;1316;-75
2022/08/29 04:03:26;;;;;;;;;;;;;;;;;;5071732;28;1064;-75
2022/08/29 04:05:53;;;;;;;;;;;;;;;;;;5051088;28;1529;-78
2022/08/29 04:08:19;;;;;;;;;;;;;;;;;;5068764;28;1381;-76
2022/08/29 04:10:45;;;;;;;;;;;;;;;;;;5042962;28;1487;-76
2022/08/29 04:13:12;;;;;;;;;;;;;;;;;;5068438;28;1914;-76
2022/08/29 04:15:40;;;;;;;;;;;;;;;;;;5060896;28;1430;-76
2022/08/29 04:18:07;;;;;;;;;;;;;;;;;;5054821;28;1358;-77
2022/08/29 04:20:34;;;;;;;;;;;;;;;;;;5070365;28;1472;-76
2022/08/29 04:23:00;;;;;;;;;;;;;;;;;;5069728;28;1767;-77
2022/08/29 04:25:27;;;;;;;;;;;;;;;;;;5071707;28;1079;-77
2022/08/29 04:27:54;;;;;;;;;;;;;;;;;;5071447;28;1048;-76
2022/08/29 04:30:21;;;;;;;;;;;;;;;;;;5071724;28;1281;-78
2022/08/29 04:32:49;;;;;;;;;;;;;;;;;;5068308;28;1910;-77
2022/08/29 04:35:15;;;;;;;;;;;;;;;;;;5063416;28;1251;-75
2022/08/29 04:37:42;;;;;;;;;;;;;;;;;;5071546;28;1127;-76
2022/08/29 04:40:09;;;;;;;;;;;;;;;;;;5071483;28;1396;-76
2022/08/29 04:42:36;;;;;;;;;;;;;;;;;;5063405;28;1660;-76
2022/08/29 04:45:02;;;;;;;;;;;;;;;;;;5067100;28;1361;-77
2022/08/29 04:47:28;;;;;;;;;;;;;;;;;;5071474;28;1169;-76
2022/08/29 04:49:56;;;;;;;;;;;;;;;;;;5071154;28;1342;-76
2022/08/29 04:52:22;;;;;;;;;;;;;;;;;;5070593;28;1207;-77
2022/08/29 04:54:49;;;;;;;;;;;;;;;;;;5071095;28;1917;-76
2022/08/29 04:57:15;;;;;;;;;;;;;;;;;;5071462;28;847;-76
2022/08/29 04:59:41;;;;;;;;;;;;;;;;;;5071184;28;1310;-76
2022/08/29 05:02:07;;;;;;;;;;;;;;;;;;5070440;28;1159;-76
2022/08/29 05:04:33;;;;;;;;;;;;;;;;;;5070976;28;1366;-76
2022/08/29 05:07:01;;;;;;;;;;;;;;;;;;5070812;28;1382;-74
2022/08/29 05:09:27;;;;;;;;;;;;;;;;;;5070699;28;1399;-76
2022/08/29 05:11:53;;;;;;;;;;;;;;;;;;5067755;28;1416;-77
2022/08/29 05:14:20;;;;;;;;;;;;;;;;;;5063929;28;1971;-76
2022/08/29 05:16:47;;;;;;;;;;;;;;;;;;5069572;28;1696;-76
2022/08/29 05:19:13;;;;;;;;;;;;;;;;;;5072689;28;1449;-76
2022/08/29 05:21:39;;;;;;;;;;;;;;;;;;5060802;28;1213;-76
2022/08/29 05:24:07;;;;;;;;;;;;;;;;;;5071375;28;1068;-75
2022/08/29 05:26:35;;;;;;;;;;;;;;;;;;5071148;28;849;-76
2022/08/29 05:29:02;;;;;;;;;;;;;;;;;;5070696;28;1446;-74
2022/08/29 05:31:28;;;;;;;;;;;;;;;;;;5064791;28;1451;-75
2022/08/29 05:33:54;;;;;;;;;;;;;;;;;;5066552;28;1969;-75
2022/08/29 05:36:20;;;;;;;;;;;;;;;;;;5051728;28;1355;-75
2022/08/29 05:38:46;;;;;;;;;;;;;;;;;;5070638;28;1217;-74
2022/08/29 05:41:14;;;;;;;;;;;;;;;;;;5073080;28;1385;-75
2022/08/29 05:43:40;;;;;;;;;;;;;;;;;;5074897;28;1063;-75
2022/08/29 05:46:08;;;;;;;;;;;;;;;;;;5072791;28;1688;-75
2022/08/29 05:48:35;;;;;;;;;;;;;;;;;;5073205;28;1117;-76
2022/08/29 05:51:01;;;;;;;;;;;;;;;;;;5072581;28;1392;-76
2022/08/29 05:53:27;;;;;;;;;;;;;;;;;;5072590;28;1969;-77
2022/08/29 05:55:53;;;;;;;;;;;;;;;;;;5072715;28;1154;-75
2022/08/29 05:58:21;;;;;;;;;;;;;;;;;;5073249;28;1106;-76
2022/08/29 06:00:48;;;;;;;;;;;;;;;;;;5073216;28;1328;-75
2022/08/29 06:03:14;;;;;;;;;;;;;;;;;;5074302;28;1064;-75
2022/08/29 06:05:40;;;;;;;;;;;;;;;;;;5074293;28;992;-76
2022/08/29 06:08:07;;;;;;;;;;;;;;;;;;5074593;28;1079;-75
2022/08/29 06:10:33;;;;;;;;;;;;;;;;;;5073158;28;1523;-76
2022/08/29 06:12:59;;;;;;;;;;;;;;;;;;5072883;28;1178;-76
2022/08/29 06:15:28;;;;;;;;;;;;;;;;;;5074459;28;1914;-76
2022/08/29 06:17:55;;;;;;;;;;;;;;;;;;5074014;28;1004;-76
2022/08/29 06:20:21;;;;;;;;;;;;;;;;;;5072909;28;1790;-76
2022/08/29 06:22:47;;;;;;;;;;;;;;;;;;5072207;28;1059;-75
2022/08/29 06:25:13;;;;;;;;;;;;;;;;;;5074229;28;929;-75
2022/08/29 06:27:39;;;;;;;;;;;;;;;;;;5073980;28;906;-75
2022/08/29 06:30:06;;;;;;;;;;;;;;;;;;5073682;28;1280;-76
2022/08/29 06:32:34;;;;;;;;;;;;;;;;;;5073631;28;956;-76
2022/08/29 06:35:00;;;;;;;;;;;;;;;;;;5073591;28;1983;-75
2022/08/29 06:37:26;;;;;;;;;;;;;;;;;;5056000;28;1338;-76
2022/08/29 06:39:52;;;;;;;;;;;;;;;;;;5073687;28;1418;-75
2022/08/29 06:42:22;;;;;;;;;;;;;;;;;;5073628;28;996;-75
2022/08/29 06:44:48;;;;;;;;;;;;;;;;;;5073751;28;818;-75
2022/08/29 06:47:15;;;;;;;;;;;;;;;;;;5073496;28;1123;-76
2022/08/29 06:49:42;;;;;;;;;;;;;;;;;;5073497;28;1310;-76
2022/08/29 06:52:08;;;;;;;;;;;;;;;;;;5054927;28;1185;-76
2022/08/29 06:54:34;;;;;;;;;;;;;;;;;;5073471;28;1977;-76
2022/08/29 06:57:01;;;;;;;;;;;;;;;;;;5073471;28;835;-75
2022/08/29 06:59:27;;;;;;;;;;;;;;;;;;5073289;28;1417;-75
2022/08/29 07:01:53;;;;;;;;;;;;;;;;;;5073172;28;612;-75
2022/08/29 07:04:20;;;;;;;;;;;;;;;;;;5073457;28;953;-76
2022/08/29 07:06:47;;;;;;;;;;;;;;;;;;5073252;28;1134;-75
2022/08/29 07:09:14;;;;;;;;;;;;;;;;;;5055423;28;1474;-74
2022/08/29 07:11:41;;;;;;;;;;;;;;;;;;5072768;28;953;-75
2022/08/29 07:14:07;;;;;;;;;;;;;;;;;;5072991;28;1914;-75
2022/08/29 07:16:34;;;;;;;;;;;;;;;;;;5073019;28;885;-76
2022/08/29 07:19:00;;;;;;;;;;;;;;;;;;5074309;28;1467;-75
2022/08/29 07:21:27;;;;;;;;;;;;;;;;;;5091681;28;1505;-75
2022/08/29 07:23:54;;;;;;;;;;;;;;;;;;5093046;28;1088;-75
2022/08/29 07:26:22;;;;;;;;;;;;;;;;;;5093419;28;1088;-75
2022/08/29 07:28:49;;;;;;;;;;;;;;;;;;5063725;28;2018;-74
2022/08/29 07:31:15;;;;;;;;;;;;;;;;;;5071144;28;1426;-75
2022/08/29 07:33:41;;;;;;;;;;;;;;;;;;5072505;28;1978;-74
2022/08/29 07:36:08;;;;;;;;;;;;;;;;;;5072601;28;1063;-75
2022/08/29 07:38:34;;;;;;;;;;;;;;;;;;5072734;28;892;-77
2022/08/29 07:41:03;;;;;;;;;;;;;;;;;;5072281;28;1296;-76
2022/08/29 07:43:29;;;;;;;;;;;;;;;;;;5072317;28;1067;-75
2022/08/29 07:45:56;;;;;;;;;;;;;;;;;;5072379;28;1059;-76
2022/08/29 07:48:22;;;;;;;;;;;;;;;;;;5072416;28;924;-75
2022/08/29 07:50:48;;;;;;;;;;;;;;;;;;5072086;28;1308;-74
2022/08/29 07:53:15;;;;;;;;;;;;;;;;;;5072186;28;897;-75
2022/08/29 07:55:41;;;;;;;;;;;;;;;;;;5072361;28;1914;-76
2022/08/29 07:58:08;;;;;;;;;;;;;;;;;;5071104;28;1131;-75
2022/08/29 08:00:35;;;;;;;;;;;;;;;;;;5072287;28;1388;-75
2022/08/29 08:03:01;;;;;;;;;;;;;;;;;;5070985;28;905;-75
2022/08/29 08:05:27;;;;;;;;;;;;;;;;;;5072133;28;1051;-76
2022/08/29 08:07:53;;;;;;;;;;;;;;;;;;5070806;28;1312;-76
2022/08/29 08:10:20;;;;;;;;;;;;;;;;;;5071953;28;1399;-75
2022/08/29 08:12:46;;;;;;;;;;;;;;;;;;5071950;28;898;-76
2022/08/29 08:15:14;;;;;;;;;;;;;;;;;;5072114;28;1977;-76
2022/08/29 08:17:41;;;;;;;;;;;;;;;;;;5071897;28;1043;-74
2022/08/29 08:20:07;;;;;;;;;;;;;;;;;;5071949;28;1368;-75
2022/08/29 08:22:33;;;;;;;;;;;;;;;;;;5071668;28;1114;-75
2022/08/29 08:25:00;;;;;;;;;;;;;;;;;;5071889;28;925;-76
2022/08/29 08:27:26;;;;;;;;;;;;;;;;;;5071899;28;815;-75
2022/08/29 08:29:52;;;;;;;;;;;;;;;;;;5071571;28;1300;-75
2022/08/29 08:32:19;;;;;;;;;;;;;;;;;;5071556;28;822;-75
2022/08/29 08:34:46;;;;;;;;;;;;;;;;;;5071676;28;1910;-76
2022/08/29 08:37:12;;;;;;;;;;;;;;;;;;5071798;28;1048;-76
2022/08/29 08:39:38;;;;;;;;;;;;;;;;;;5071359;28;1332;-76
2022/08/29 08:42:05;;;;;;;;;;;;;;;;;;5071605;28;791;-76
2022/08/29 08:44:40;;;;;;;;;;;;;;;;;;5070324;28;1405;-76
2022/08/29 08:47:07;;;;;;;;;;;;;;;;;;5071486;28;1051;-75
2022/08/29 08:49:36;;;;;;;;;;;;;;;;;;5071618;28;1407;-76
2022/08/29 08:52:03;;;;;;;;;;;;;;;;;;5071221;28;913;-76
2022/08/29 08:54:33;;;;;;;;;;;;;;;;;;5071395;28;1976;-76
2022/08/29 08:57:00;;;;;;;;;;;;;;;;;;5071476;28;1087;-75
2022/08/29 08:59:28;;;;;;;;;;;;;;;;;;5071531;28;1423;-75
2022/08/29 09:01:58;;;;;;;;;;;;;;;;;;5071186;28;961;-77
2022/08/29 09:04:28;;;;;;;;;;;;;;;;;;5071903;28;1064;-76
2022/08/29 09:07:00;;;;;;;;;;;;;;;;;;5071922;28;976;-76
2022/08/29 09:09:30;;;;;;;;;;;;;;;;;;5071700;28;1333;-76
2022/08/29 09:12:00;;;;;;;;;;;;;;;;;;5073493;28;1577;-75
2022/08/29 09:14:32;;;;;;;;;;;;;;;;;;5072738;28;1922;-76
2022/08/29 09:16:58;;;;;;;;;;;;;;;;;;5075356;28;1023;-76
2022/08/29 09:19:25;;;;;;;;;;;;;;;;;;5057528;28;1503;-75
2022/08/29 09:21:52;;;;;;;;;;;;;;;;;;5057352;28;1127;-75
2022/08/29 09:24:20;;;;;;;;;;;;;;;;;;5074089;28;1581;-75
2022/08/29 09:26:46;;;;;;;;;;;;;;;;;;5068223;28;1343;-77
2022/08/29 09:29:13;;;;;;;;;;;;;;;;;;5062292;28;1773;-78
2022/08/29 09:31:39;;;;;;;;;;;;;;;;;;5088795;28;1423;-76
2022/08/29 09:34:07;;;;;;;;;;;;;;;;;;5055646;28;1394;-75
2022/08/29 09:36:38;;;;;;;;;;;;;;;;;;5068291;28;1960;-76
2022/08/29 09:39:11;;;;;;;;;;;;;;;;;;5072817;28;1281;-76
2022/08/29 09:41:39;;;;;;;;;;;;;;;;;;5056408;28;1487;-78
2022/08/29 09:44:05;;;;;;;;;;;;;;;;;;5056832;28;1116;-75
2022/08/29 09:46:31;;;;;;;;;;;;;;;;;;5073461;28;1532;-76
2022/08/29 09:49:11;;;;;;;;;;;;;;;;;;5065626;28;1405;-76
2022/08/29 09:51:39;;;;;;;;;;;;;;;;;;5068457;28;1391;-73
2022/08/29 09:54:10;;;;;;;;;;;;;;;;;;5074457;28;929;-72
2022/08/29 09:56:37;;;;;;;;;;;;;;;;;;5074540;28;1981;-73
2022/08/29 09:59:05;;;;;;;;;;;;;;;;;;5056406;28;1193;-75
2022/08/29 10:01:32;;;;;;;;;;;;;;;;;;5089952;22;3804;-75
2022/08/29 10:03:59;;;;;;;;;;;;;;;;;;5069538;28;1664;-73
2022/08/29 10:06:26;;;;;;;;;;;;;;;;;;5083376;28;1582;-75
2022/08/29 10:08:56;;;;;;;;;;;;;;;;;;5089667;28;1204;-75
2022/08/29 10:11:23;;;;;;;;;;;;;;;;;;5085815;28;1400;-75
2022/08/29 10:13:51;;;;;;;;;;;;;;;;;;5094139;28;1204;-75
2022/08/29 10:16:19;;;;;;;;;;;;;;;;;;5074311;28;1993;-75
2022/08/29 10:18:47;;;;;;;;;;;;;;;;;;5073637;28;897;-75
2022/08/29 10:21:20;;;;;;;;;;;;;;;;;;5074018;28;1318;-74
2022/08/29 10:24:00;;;;;;;;;;;;;;;;;;5074289;28;1399;-75
2022/08/29 10:26:28;;;;;;;;;;;;;;;;;;5068666;28;1153;-75
2022/08/29 10:28:56;;;;;;;;;;;;;;;;;;5075006;28;1451;-75
2022/08/29 10:31:26;;;;;;;;;;;;;;;;;;5056867;28;1474;-75
2022/08/29 10:33:59;;;;;;;;;;;;;;;;;;5054696;28;1264;-75
2022/08/29 10:36:29;;;;;;;;;;;;;;;;;;5072716;28;2032;-75
2022/08/29 10:38:57;;;;;;;;;;;;;;;;;;5064722;28;1205;-75
2022/08/29 10:41:25;;;;;;;;;;;;;;;;;;5052866;28;1257;-75
2022/08/29 10:43:53;;;;;;;;;;;;;;;;;;5053296;28;1079;-74
2022/08/29 10:46:34;;;;;;;;;;;;;;;;;;5059338;28;1465;-75
2022/08/29 10:49:02;;;;;;;;;;;;;;;;;;5062412;28;1476;-76
2022/08/29 10:51:30;;;;;;;;;;;;;;;;;;5061449;28;1497;-75
2022/08/29 10:53:57;;;;;;;;;;;;;;;;;;5063673;28;1829;-75
2022/08/29 10:56:24;;;;;;;;;;;;;;;;;;5065240;28;1923;-75
2022/08/29 10:58:54;;;;;;;;;;;;;;;;;;5061312;28;1201;-75
2022/08/29 11:01:21;;;;;;;;;;;;;;;;;;5057108;28;1356;-75
2022/08/29 11:03:49;;;;;;;;;;;;;;;;;;5069077;28;1405;-76
2022/08/29 11:06:16;;;;;;;;;;;;;;;;;;5065736;28;1553;-75
2022/08/29 11:08:44;;;;;;;;;;;;;;;;;;5056575;28;1501;-75
2022/08/29 11:11:11;;;;;;;;;;;;;;;;;;5059401;28;1383;-75
2022/08/29 11:13:38;;;;;;;;;;;;;;;;;;5070619;28;1774;-75
2022/08/29 11:16:07;;;;;;;;;;;;;;;;;;5067423;28;1914;-75
2022/08/29 11:18:35;;;;;;;;;;;;;;;;;;5066420;28;902;-76
2022/08/29 11:21:03;;;;;;;;;;;;;;;;;;5065975;28;1762;-75
2022/08/29 11:23:30;;;;;;;;;;;;;;;;;;5059561;28;1150;-76
2022/08/29 11:25:57;;;;;;;;;;;;;;;;;;5052343;28;1067;-75
2022/08/29 11:28:24;;;;;;;;;;;;;;;;;;5052849;28;1079;-76
2022/08/29 11:30:51;;;;;;;;;;;;;;;;;;5052405;28;1345;-74
2022/08/29 11:33:21;;;;;;;;;;;;;;;;;;5052399;28;1083;-76
2022/08/29 11:35:50;;;;;;;;;;;;;;;;;;5052456;28;1967;-75
2022/08/29 11:38:43;;;;;;;;;;;;;;;;;;5051478;28;1115;-76
2022/08/29 11:41:17;;;;;;;;;;;;;;;;;;5021422;28;1943;-76
2022/08/29 11:43:47;;;;;;;;;;;;;;;;;;5060666;28;1130;-75
2022/08/29 11:46:14;;;;;;;;;;;;;;;;;;5064867;28;1418;-76
2022/08/29 11:48:40;;;;;;;;;;;;;;;;;;5063774;28;1410;-75
2022/08/29 11:51:25;;;;;;;;;;;;;;;;;;5057598;28;1395;-76
2022/08/29 11:53:52;;;;;;;;;;;;;;;;;;5056047;28;1149;-76
2022/08/29 11:56:24;;;;;;;;;;;;;;;;;;5050839;28;1914;-76
2022/08/29 11:58:51;;;;;;;;;;;;;;;;;;5058073;28;1695;-75
2022/08/29 12:01:36;;;;;;;;;;;;;;;;;;5071030;28;1353;-74
2022/08/29 12:04:03;;;;;;;;;;;;;;;;;;5070496;28;1046;-75
2022/08/29 12:06:40;;;;;;;;;;;;;;;;;;5071964;28;1125;-75
2022/08/29 12:09:08;;;;;;;;;;;;;;;;;;5071593;28;1063;-76
2022/08/29 12:11:49;;;;;;;;;;;;;;;;;;5071486;28;1373;-75
2022/08/29 12:14:30;;;;;;;;;;;;;;;;;;5071387;28;1120;-76
2022/08/29 12:17:03;;;;;;;;;;;;;;;;;;5072086;28;1976;-75
2022/08/29 12:19:49;;;;;;;;;;;;;;;;;;5071867;28;590;-75
2022/08/29 12:22:34;;;;;;;;;;;;;;;;;;5071595;28;1361;-76
2022/08/29 12:25:04;;;;;;;;;;;;;;;;;;5071383;28;983;-75
2022/08/29 12:27:51;;;;;;;;;;;;;;;;;;5071738;28;959;-75
2022/08/29 12:30:19;;;;;;;;;;;;;;;;;;5066527;28;1053;-75
2022/08/29 12:32:51;;;;;;;;;;;;;;;;;;5071289;28;1397;-75
2022/08/29 12:35:20;;;;;;;;;;;;;;;;;;5071493;28;1918;-76
2022/08/29 12:37:52;;;;;;;;;;;;;;;;;;5071384;28;1087;-75
2022/08/29 12:40:21;;;;;;;;;;;;;;;;;;5071400;28;1117;-75
2022/08/29 12:42:49;;;;;;;;;;;;;;;;;;5069665;28;1399;-75
2022/08/29 12:45:16;;;;;;;;;;;;;;;;;;5071245;28;1126;-75
2022/08/29 12:47:45;;;;;;;;;;;;;;;;;;5071246;28;821;-76
2022/08/29 12:50:14;;;;;;;;;;;;;;;;;;5070854;28;964;-75
2022/08/29 12:52:40;;;;;;;;;;;;;;;;;;5070942;28;1393;-76
2022/08/29 12:55:19;;;;;;;;;;;;;;;;;;5070954;28;1015;-74
2022/08/29 12:57:47;;;;;;;;;;;;;;;;;;5071073;28;905;-75
2022/08/29 13:00:15;;;;;;;;;;;;;;;;;;5071156;28;1129;-76
2022/08/29 13:02:41;;;;;;;;;;;;;;;;;;5070431;28;1303;-76
2022/08/29 13:05:18;;;;;;;;;;;;;;;;;;5071139;28;1005;-75
2022/08/29 13:07:52;;;;;;;;;;;;;;;;;;5071025;28;1137;-75
2022/08/29 13:10:18;;;;;;;;;;;;;;;;;;5069853;28;1224;-75
2022/08/29 13:12:44;;;;;;;;;;;;;;;;;;5070250;28;1594;-74
2022/08/29 13:15:17;;;;;;;;;;;;;;;;;;5071041;28;1228;-74
2022/08/29 13:17:45;;;;;;;;;;;;;;;;;;5070843;28;1977;-76
2022/08/29 13:20:30;;;;;;;;;;;;;;;;;;5071054;28;1043;-76
2022/08/29 13:23:14;;;;;;;;;;;;;;;;;;5070691;28;1060;-76
2022/08/29 13:25:43;;;;;;;;;;;;;;;;;;5071039;28;1251;-76
2022/08/29 13:28:12;;;;;;;;;;;;;;;;;;5071073;28;1063;-77
2022/08/29 13:30:38;;;;;;;;;;;;;;;;;;5070903;28;1391;-76
2022/08/29 13:33:05;;;;;;;;;;;;;;;;;;5070411;28;1087;-76
2022/08/29 13:35:32;;;;;;;;;;;;;;;;;;5070949;28;1977;-76
2022/08/29 13:38:09;;;;;;;;;;;;;;;;;;5075556;28;1102;-76
2022/08/29 13:40:40;;;;;;;;;;;;;;;;;;5078024;28;1320;-76
2022/08/29 13:43:06;;;;;;;;;;;;;;;;;;5072735;28;1972;-76
2022/08/29 13:45:32;;;;;;;;;;;;;;;;;;5070988;28;952;-76
2022/08/29 13:48:03;;;;;;;;;;;;;;;;;;5070625;28;1408;-76
2022/08/29 13:50:29;;;;;;;;;;;;;;;;;;5070603;28;2000;-74
2022/08/29 13:52:56;;;;;;;;;;;;;;;;;;5070527;28;936;-76
2022/08/29 13:55:22;;;;;;;;;;;;;;;;;;5070777;28;1083;-76
2022/08/29 13:57:51;;;;;;;;;;;;;;;;;;5069285;28;1910;-76
2022/08/29 14:00:17;;;;;;;;;;;;;;;;;;5070670;28;1138;-77
2022/08/29 14:02:44;;;;;;;;;;;;;;;;;;5073028;28;1291;-77
2022/08/29 14:05:12;;;;;;;;;;;;;;;;;;5074443;28;933;-76
2022/08/29 14:07:38;;;;;;;;;;;;;;;;;;5074112;28;1071;-77
2022/08/29 14:10:05;;;;;;;;;;;;;;;;;;5074173;28;982;-77
2022/08/29 14:12:31;;;;;;;;;;;;;;;;;;5071851;28;1325;-77
2022/08/29 14:14:59;;;;;;;;;;;;;;;;;;5072658;28;1321;-77
2022/08/29 14:17:25;;;;;;;;;;;;;;;;;;5073945;28;1924;-77
2022/08/29 14:19:52;;;;;;;;;;;;;;;;;;5073870;28;995;-76
2022/08/29 14:22:18;;;;;;;;;;;;;;;;;;5073537;28;1294;-77
2022/08/29 14:24:50;;;;;;;;;;;;;;;;;;5073963;28;936;-77
2022/08/29 14:27:16;;;;;;;;;;;;;;;;;;5073776;28;1192;-77
2022/08/29 14:29:42;;;;;;;;;;;;;;;;;;5073914;28;1107;-77
2022/08/29 14:32:10;;;;;;;;;;;;;;;;;;5073301;28;1298;-77
2022/08/29 14:34:36;;;;;;;;;;;;;;;;;;5073693;28;901;-77
2022/08/29 14:37:02;;;;;;;;;;;;;;;;;;5073522;28;1964;-77
2022/08/29 14:39:29;;;;;;;;;;;;;;;;;;5073613;28;1067;-77
2022/08/29 14:41:55;;;;;;;;;;;;;;;;;;5073210;28;1305;-77
2022/08/29 14:44:21;;;;;;;;;;;;;;;;;;5073739;28;1338;-77
2022/08/29 14:46:47;;;;;;;;;;;;;;;;;;5073799;28;969;-77
2022/08/29 14:49:15;;;;;;;;;;;;;;;;;;5073548;28;1068;-76
2022/08/29 14:51:43;;;;;;;;;;;;;;;;;;5073282;28;1348;-76
2022/08/29 14:54:09;;;;;;;;;;;;;;;;;;5073420;28;779;-76
2022/08/29 14:56:35;;;;;;;;;;;;;;;;;;5073155;28;1969;-77
2022/08/29 14:59:01;;;;;;;;;;;;;;;;;;5072145;28;1546;-76
2022/08/29 15:01:28;;;;;;;;;;;;;;;;;;5072749;28;1399;-77
2022/08/29 15:03:54;;;;;;;;;;;;;;;;;;5073040;28;1055;-76
2022/08/29 15:06:21;;;;;;;;;;;;;;;;;;5073235;28;1119;-77
2022/08/29 15:08:48;;;;;;;;;;;;;;;;;;5073005;28;885;-77
2022/08/29 15:11:14;;;;;;;;;;;;;;;;;;5072846;28;1313;-76
2022/08/29 15:13:40;;;;;;;;;;;;;;;;;;5072828;28;893;-77
2022/08/29 15:16:07;;;;;;;;;;;;;;;;;;5072935;28;1906;-77
2022/08/29 15:18:33;;;;;;;;;;;;;;;;;;5073249;28;944;-77
2022/08/29 15:20:59;;;;;;;;;;;;;;;;;;5072635;28;1295;-77
2022/08/29 15:23:27;;;;;;;;;;;;;;;;;;5072658;28;944;-77
2022/08/29 15:25:53;;;;;;;;;;;;;;;;;;5072486;28;1094;-77
2022/08/29 15:28:19;;;;;;;;;;;;;;;;;;5072790;28;1261;-77
2022/08/29 15:30:46;;;;;;;;;;;;;;;;;;5072707;28;1410;-77
2022/08/29 15:33:12;;;;;;;;;;;;;;;;;;5072272;28;800;-77
2022/08/29 15:35:39;;;;;;;;;;;;;;;;;;5072653;28;940;-77
2022/08/29 15:38:06;;;;;;;;;;;;;;;;;;5072277;28;2016;-77
2022/08/29 15:40:33;;;;;;;;;;;;;;;;;;5072476;28;1292;-75
2022/08/29 15:43:00;;;;;;;;;;;;;;;;;;5069184;28;1489;-77
2022/08/29 15:45:26;;;;;;;;;;;;;;;;;;5060806;28;1381;-76
2022/08/29 15:47:52;;;;;;;;;;;;;;;;;;5067306;28;1321;-77
2022/08/29 15:50:19;;;;;;;;;;;;;;;;;;5062389;28;1329;-76
2022/08/29 15:52:45;;;;;;;;;;;;;;;;;;5062803;28;1363;-76
2022/08/29 15:55:11;;;;;;;;;;;;;;;;;;5061543;28;1212;-76
2022/08/29 15:57:39;;;;;;;;;;;;;;;;;;5057207;28;1914;-76
2022/08/29 16:00:06;;;;;;;;;;;;;;;;;;5065063;28;1517;-76
2022/08/29 16:02:37;;;;;;;;;;;;;;;;;;5059619;28;1458;-76
2022/08/29 16:05:04;;;;;;;;;;;;;;;;;;5052020;28;1004;-76
2022/08/29 16:07:30;;;;;;;;;;;;;;;;;;5051927;28;1004;-76
2022/08/29 16:09:58;;;;;;;;;;;;;;;;;;5052641;28;1835;-75
2022/08/29 16:12:25;;;;;;;;;;;;;;;;;;5059720;28;1302;-76
2022/08/29 16:14:52;;;;;;;;;;;;;;;;;;5061047;28;1321;-76
2022/08/29 16:17:18;;;;;;;;;;;;;;;;;;5062467;28;1989;-76
2022/08/29 16:19:44;;;;;;;;;;;;;;;;;;5056560;28;1569;-75
2022/08/29 16:22:11;;;;;;;;;;;;;;;;;;5063986;28;1481;-76
2022/08/29 16:24:37;;;;;;;;;;;;;;;;;;5056339;28;1126;-77
2022/08/29 16:27:04;;;;;;;;;;;;;;;;;;5065893;28;1767;-76
2022/08/29 16:29:30;;;;;;;;;;;;;;;;;;5075636;22;2429;-74
2022/08/29 16:31:58;;;;;;;;;;;;;;;;;;5070598;28;1161;-74
2022/08/29 16:34:24;;;;;;;;;;;;;;;;;;5071857;28;1063;-73
2022/08/29 16:36:50;;;;;;;;;;;;;;;;;;5071795;28;1914;-73
2022/08/29 16:39:16;;;;;;;;;;;;;;;;;;5070166;28;1321;-74
2022/08/29 16:41:44;;;;;;;;;;;;;;;;;;5071181;28;1079;-71
2022/08/29 16:44:10;;;;;;;;;;;;;;;;;;5071468;28;1000;-71
2022/08/29 16:46:36;;;;;;;;;;;;;;;;;;5071363;28;1064;-71
2022/08/29 16:49:04;;;;;;;;;;;;;;;;;;5071150;28;1367;-71
2022/08/29 16:51:30;;;;;;;;;;;;;;;;;;5070851;28;921;-71
2022/08/29 16:53:57;;;;;;;;;;;;;;;;;;5071372;28;1063;-72
2022/08/29 16:56:23;;;;;;;;;;;;;;;;;;5071631;28;866;-71
2022/08/29 16:58:58;;;;;;;;;;;;;;;;;;5071101;28;1973;-73
2022/08/29 17:01:25;;;;;;;;;;;;;;;;;;5071023;28;928;-74
2022/08/29 17:03:51;;;;;;;;;;;;;;;;;;5071424;28;1067;-74
2022/08/29 17:06:19;;;;;;;;;;;;;;;;;;5071398;28;968;-74
2022/08/29 17:18:26;;;;;;;;;;;;;;;;;;5085578;28;1997;-73
2022/08/29 17:20:52;;;;;;;;;;;;;;;;;;5069199;28;1514;-73